Terminal Aerodrome Forecast
Issued by NWS Sterling, VA

Home | Current Version | Previous Version | Text Only | Print | Product List | Glossary On
Versions: 1 2 3 4 5 6 7 8 9 10 11 12 13 14 15 16 17 18 19 20 21 22 23 24
000
FTUS41 KLWX 291130
TAFBWI
TAF
KBWI 291130Z 2912/3018 09013G20KT 3SM SHRA VCTS OVC008CB
     FM291500 09015G23KT P6SM OVC008
     FM291800 09014G21KT 3SM SHRA OVC008
     FM300000 08018KT 3SM -SHRA OVC008=

USA.gov is the U.S. government's official web portal to all federal, state and local government web resources and services.